sensor_id;sensor_type;location;lat;lon;timestamp;P1;durP1;ratioP1;P2;durP2;ratioP2
73107;SDS011;61559;50.476;15.588;2022-12-07T00:00:38;3.70;;;2.00;;
73107;SDS011;61559;50.476;15.588;2022-12-07T00:03:11;9.10;;;3.80;;
73107;SDS011;61559;50.476;15.588;2022-12-07T00:05:42;3.90;;;2.00;;
73107;SDS011;61559;50.476;15.588;2022-12-07T00:08:13;3.30;;;1.90;;
73107;SDS011;61559;50.476;15.588;2022-12-07T00:10:45;2.30;;;1.70;;
73107;SDS011;61559;50.476;15.588;2022-12-07T00:13:16;6.00;;;3.90;;
73107;SDS011;61559;50.476;15.588;2022-12-07T00:15:47;3.00;;;1.80;;
73107;SDS011;61559;50.476;15.588;2022-12-07T00:18:18;3.50;;;2.50;;
73107;SDS011;61559;50.476;15.588;2022-12-07T00:20:49;2.70;;;1.40;;
73107;SDS011;61559;50.476;15.588;2022-12-07T00:23:20;4.70;;;2.90;;
73107;SDS011;61559;50.476;15.588;2022-12-07T00:25:51;2.30;;;1.40;;
73107;SDS011;61559;50.476;15.588;2022-12-07T00:28:22;5.40;;;3.10;;
73107;SDS011;61559;50.476;15.588;2022-12-07T00:30:53;5.00;;;2.40;;
73107;SDS011;61559;50.476;15.588;2022-12-07T00:33:31;3.20;;;1.40;;
73107;SDS011;61559;50.476;15.588;2022-12-07T00:36:02;4.00;;;2.00;;
73107;SDS011;61559;50.476;15.588;2022-12-07T00:38:36;3.30;;;1.70;;
73107;SDS011;61559;50.476;15.588;2022-12-07T00:41:09;4.30;;;2.90;;
73107;SDS011;61559;50.476;15.588;2022-12-07T00:43:42;2.60;;;1.90;;
73107;SDS011;61559;50.476;15.588;2022-12-07T00:46:15;1.40;;;1.10;;
73107;SDS011;61559;50.476;15.588;2022-12-07T00:48:47;1.30;;;0.90;;
73107;SDS011;61559;50.476;15.588;2022-12-07T00:51:19;1.00;;;0.80;;
73107;SDS011;61559;50.476;15.588;2022-12-07T00:53:51;1.30;;;1.20;;
73107;SDS011;61559;50.476;15.588;2022-12-07T00:56:23;1.40;;;1.00;;
73107;SDS011;61559;50.476;15.588;2022-12-07T00:58:56;0.90;;;0.80;;
73107;SDS011;61559;50.476;15.588;2022-12-07T01:01:29;1.90;;;1.30;;
73107;SDS011;61559;50.476;15.588;2022-12-07T01:04:02;2.40;;;1.40;;
73107;SDS011;61559;50.476;15.588;2022-12-07T01:06:34;9.60;;;5.10;;
73107;SDS011;61559;50.476;15.588;2022-12-07T01:09:05;10.10;;;4.80;;
73107;SDS011;61559;50.476;15.588;2022-12-07T01:11:36;6.40;;;2.30;;
73107;SDS011;61559;50.476;15.588;2022-12-07T01:14:08;4.20;;;2.40;;
73107;SDS011;61559;50.476;15.588;2022-12-07T01:16:39;2.00;;;1.20;;
73107;SDS011;61559;50.476;15.588;2022-12-07T01:19:11;2.00;;;1.30;;
73107;SDS011;61559;50.476;15.588;2022-12-07T01:21:42;1.90;;;1.30;;
73107;SDS011;61559;50.476;15.588;2022-12-07T01:24:13;1.50;;;0.90;;
73107;SDS011;61559;50.476;15.588;2022-12-07T01:26:44;2.00;;;1.40;;
73107;SDS011;61559;50.476;15.588;2022-12-07T01:29:17;1.90;;;0.70;;
73107;SDS011;61559;50.476;15.588;2022-12-07T01:31:49;0.70;;;0.60;;
73107;SDS011;61559;50.476;15.588;2022-12-07T01:34:20;0.50;;;0.50;;
73107;SDS011;61559;50.476;15.588;2022-12-07T01:36:51;0.70;;;0.70;;
73107;SDS011;61559;50.476;15.588;2022-12-07T01:39:22;0.70;;;0.70;;
73107;SDS011;61559;50.476;15.588;2022-12-07T01:41:53;0.60;;;0.60;;
73107;SDS011;61559;50.476;15.588;2022-12-07T01:44:25;2.00;;;1.10;;
73107;SDS011;61559;50.476;15.588;2022-12-07T01:46:58;1.10;;;0.80;;
73107;SDS011;61559;50.476;15.588;2022-12-07T01:49:31;1.30;;;0.90;;
73107;SDS011;61559;50.476;15.588;2022-12-07T01:52:10;0.80;;;0.70;;
73107;SDS011;61559;50.476;15.588;2022-12-07T01:54:46;0.90;;;0.60;;
73107;SDS011;61559;50.476;15.588;2022-12-07T01:57:19;0.80;;;0.50;;
73107;SDS011;61559;50.476;15.588;2022-12-07T01:59:51;1.90;;;1.00;;
73107;SDS011;61559;50.476;15.588;2022-12-07T02:02:25;11.80;;;4.80;;
73107;SDS011;61559;50.476;15.588;2022-12-07T02:05:01;2.10;;;1.40;;
73107;SDS011;61559;50.476;15.588;2022-12-07T02:07:35;2.30;;;0.80;;
73107;SDS011;61559;50.476;15.588;2022-12-07T02:10:14;0.80;;;0.70;;
73107;SDS011;61559;50.476;15.588;2022-12-07T02:12:48;3.10;;;0.90;;
73107;SDS011;61559;50.476;15.588;2022-12-07T02:15:23;5.20;;;2.20;;
73107;SDS011;61559;50.476;15.588;2022-12-07T02:18:00;1.80;;;1.00;;
73107;SDS011;61559;50.476;15.588;2022-12-07T02:20:37;2.10;;;1.20;;
73107;SDS011;61559;50.476;15.588;2022-12-07T02:23:23;9.70;;;4.10;;
73107;SDS011;61559;50.476;15.588;2022-12-07T02:26:13;4.00;;;1.90;;
73107;SDS011;61559;50.476;15.588;2022-12-07T02:29:03;0.90;;;0.50;;
73107;SDS011;61559;50.476;15.588;2022-12-07T02:31:48;0.90;;;0.80;;
73107;SDS011;61559;50.476;15.588;2022-12-07T02:34:29;1.60;;;0.80;;
73107;SDS011;61559;50.476;15.588;2022-12-07T02:37:08;1.30;;;1.20;;
73107;SDS011;61559;50.476;15.588;2022-12-07T02:39:47;1.20;;;0.80;;
73107;SDS011;61559;50.476;15.588;2022-12-07T02:42:25;2.30;;;0.80;;
73107;SDS011;61559;50.476;15.588;2022-12-07T02:44:59;1.50;;;0.90;;
73107;SDS011;61559;50.476;15.588;2022-12-07T02:47:33;1.20;;;0.90;;
73107;SDS011;61559;50.476;15.588;2022-12-07T02:50:07;2.80;;;1.20;;
73107;SDS011;61559;50.476;15.588;2022-12-07T02:52:39;1.90;;;1.10;;
73107;SDS011;61559;50.476;15.588;2022-12-07T02:55:10;1.10;;;0.70;;
73107;SDS011;61559;50.476;15.588;2022-12-07T02:57:49;1.00;;;0.90;;
73107;SDS011;61559;50.476;15.588;2022-12-07T03:00:32;1.00;;;0.90;;
73107;SDS011;61559;50.476;15.588;2022-12-07T03:03:10;1.00;;;0.90;;
73107;SDS011;61559;50.476;15.588;2022-12-07T03:05:52;1.90;;;1.00;;
73107;SDS011;61559;50.476;15.588;2022-12-07T03:08:30;1.40;;;1.00;;
73107;SDS011;61559;50.476;15.588;2022-12-07T03:11:08;1.80;;;1.30;;
73107;SDS011;61559;50.476;15.588;2022-12-07T03:13:49;0.90;;;0.80;;
73107;SDS011;61559;50.476;15.588;2022-12-07T03:16:29;2.30;;;1.60;;
73107;SDS011;61559;50.476;15.588;2022-12-07T03:19:04;2.00;;;1.20;;
73107;SDS011;61559;50.476;15.588;2022-12-07T03:21:38;1.40;;;1.10;;
73107;SDS011;61559;50.476;15.588;2022-12-07T03:24:13;2.50;;;1.50;;
73107;SDS011;61559;50.476;15.588;2022-12-07T03:26:47;2.80;;;1.50;;
73107;SDS011;61559;50.476;15.588;2022-12-07T03:29:23;2.30;;;1.70;;
73107;SDS011;61559;50.476;15.588;2022-12-07T03:31:58;2.40;;;1.40;;
73107;SDS011;61559;50.476;15.588;2022-12-07T03:34:35;4.10;;;2.00;;
73107;SDS011;61559;50.476;15.588;2022-12-07T03:37:10;3.70;;;2.00;;
73107;SDS011;61559;50.476;15.588;2022-12-07T03:42:26;3.40;;;2.10;;
73107;SDS011;61559;50.476;15.588;2022-12-07T03:44:57;4.30;;;1.80;;
73107;SDS011;61559;50.476;15.588;2022-12-07T03:47:31;3.50;;;2.50;;
73107;SDS011;61559;50.476;15.588;2022-12-07T03:50:07;3.80;;;2.40;;
73107;SDS011;61559;50.476;15.588;2022-12-07T03:52:43;4.90;;;2.70;;
73107;SDS011;61559;50.476;15.588;2022-12-07T03:55:18;3.40;;;2.30;;
73107;SDS011;61559;50.476;15.588;2022-12-07T03:57:56;4.20;;;2.40;;
73107;SDS011;61559;50.476;15.588;2022-12-07T04:00:36;2.70;;;2.10;;
73107;SDS011;61559;50.476;15.588;2022-12-07T04:03:08;4.50;;;3.20;;
73107;SDS011;61559;50.476;15.588;2022-12-07T04:05:40;3.50;;;2.20;;
73107;SDS011;61559;50.476;15.588;2022-12-07T04:08:11;3.60;;;2.20;;
73107;SDS011;61559;50.476;15.588;2022-12-07T04:10:43;5.00;;;2.20;;
73107;SDS011;61559;50.476;15.588;2022-12-07T04:13:14;3.80;;;2.00;;
73107;SDS011;61559;50.476;15.588;2022-12-07T04:15:45;4.10;;;2.50;;
73107;SDS011;61559;50.476;15.588;2022-12-07T04:18:16;3.10;;;2.30;;
73107;SDS011;61559;50.476;15.588;2022-12-07T04:20:48;4.40;;;3.00;;
73107;SDS011;61559;50.476;15.588;2022-12-07T04:23:19;13.10;;;5.60;;
73107;SDS011;61559;50.476;15.588;2022-12-07T04:25:50;28.40;;;11.70;;
73107;SDS011;61559;50.476;15.588;2022-12-07T04:28:21;5.40;;;3.20;;
73107;SDS011;61559;50.476;15.588;2022-12-07T04:30:52;4.50;;;2.80;;
73107;SDS011;61559;50.476;15.588;2022-12-07T04:33:23;3.70;;;2.60;;
73107;SDS011;61559;50.476;15.588;2022-12-07T04:35:54;5.30;;;3.50;;
73107;SDS011;61559;50.476;15.588;2022-12-07T04:38:25;8.00;;;4.60;;
73107;SDS011;61559;50.476;15.588;2022-12-07T04:40:56;5.30;;;3.30;;
73107;SDS011;61559;50.476;15.588;2022-12-07T04:43:27;7.00;;;3.10;;
73107;SDS011;61559;50.476;15.588;2022-12-07T04:45:58;6.20;;;3.60;;
73107;SDS011;61559;50.476;15.588;2022-12-07T04:48:29;5.80;;;3.00;;
73107;SDS011;61559;50.476;15.588;2022-12-07T04:51:01;8.40;;;4.00;;
73107;SDS011;61559;50.476;15.588;2022-12-07T04:53:33;5.80;;;3.30;;
73107;SDS011;61559;50.476;15.588;2022-12-07T04:56:04;5.50;;;2.90;;
73107;SDS011;61559;50.476;15.588;2022-12-07T04:58:35;4.50;;;2.90;;
73107;SDS011;61559;50.476;15.588;2022-12-07T05:01:06;5.30;;;3.10;;
73107;SDS011;61559;50.476;15.588;2022-12-07T05:03:38;8.60;;;4.20;;
73107;SDS011;61559;50.476;15.588;2022-12-07T05:08:40;7.40;;;4.00;;
73107;SDS011;61559;50.476;15.588;2022-12-07T05:11:12;8.30;;;4.00;;
73107;SDS011;61559;50.476;15.588;2022-12-07T05:14:04;7.90;;;3.20;;
73107;SDS011;61559;50.476;15.588;2022-12-07T05:16:37;8.40;;;5.00;;
73107;SDS011;61559;50.476;15.588;2022-12-07T05:19:09;8.60;;;4.40;;
73107;SDS011;61559;50.476;15.588;2022-12-07T05:24:11;5.50;;;3.70;;
73107;SDS011;61559;50.476;15.588;2022-12-07T05:26:43;7.30;;;4.30;;
73107;SDS011;61559;50.476;15.588;2022-12-07T05:29:15;5.90;;;3.60;;
73107;SDS011;61559;50.476;15.588;2022-12-07T05:31:47;6.60;;;3.80;;
73107;SDS011;61559;50.476;15.588;2022-12-07T05:34:18;6.80;;;3.50;;
73107;SDS011;61559;50.476;15.588;2022-12-07T05:36:48;7.00;;;4.00;;
73107;SDS011;61559;50.476;15.588;2022-12-07T05:39:19;6.00;;;3.60;;
73107;SDS011;61559;50.476;15.588;2022-12-07T05:41:50;8.30;;;3.70;;
73107;SDS011;61559;50.476;15.588;2022-12-07T05:44:39;7.60;;;3.90;;
73107;SDS011;61559;50.476;15.588;2022-12-07T05:47:11;7.10;;;3.70;;
73107;SDS011;61559;50.476;15.588;2022-12-07T05:49:43;6.90;;;3.80;;
73107;SDS011;61559;50.476;15.588;2022-12-07T05:52:14;8.10;;;3.40;;
73107;SDS011;61559;50.476;15.588;2022-12-07T05:54:45;8.30;;;3.70;;
73107;SDS011;61559;50.476;15.588;2022-12-07T05:57:16;7.40;;;3.60;;
73107;SDS011;61559;50.476;15.588;2022-12-07T05:59:47;6.80;;;3.60;;
73107;SDS011;61559;50.476;15.588;2022-12-07T06:02:19;6.80;;;3.80;;
73107;SDS011;61559;50.476;15.588;2022-12-07T06:04:50;6.80;;;3.80;;
73107;SDS011;61559;50.476;15.588;2022-12-07T06:07:21;7.60;;;4.20;;
73107;SDS011;61559;50.476;15.588;2022-12-07T06:09:52;6.30;;;3.80;;
73107;SDS011;61559;50.476;15.588;2022-12-07T06:12:23;8.20;;;3.80;;
73107;SDS011;61559;50.476;15.588;2022-12-07T06:15:03;7.40;;;3.90;;
73107;SDS011;61559;50.476;15.588;2022-12-07T06:17:35;8.60;;;4.10;;
73107;SDS011;61559;50.476;15.588;2022-12-07T06:22:39;9.10;;;5.30;;
73107;SDS011;61559;50.476;15.588;2022-12-07T06:25:10;8.50;;;4.50;;
73107;SDS011;61559;50.476;15.588;2022-12-07T06:27:41;10.60;;;5.10;;
73107;SDS011;61559;50.476;15.588;2022-12-07T06:30:12;10.80;;;5.30;;
73107;SDS011;61559;50.476;15.588;2022-12-07T06:32:43;13.40;;;5.30;;
73107;SDS011;61559;50.476;15.588;2022-12-07T06:35:14;14.40;;;5.80;;
73107;SDS011;61559;50.476;15.588;2022-12-07T06:40:16;13.70;;;5.90;;
73107;SDS011;61559;50.476;15.588;2022-12-07T06:42:47;9.90;;;5.20;;
73107;SDS011;61559;50.476;15.588;2022-12-07T06:45:18;15.40;;;6.40;;
73107;SDS011;61559;50.476;15.588;2022-12-07T06:50:20;16.30;;;6.30;;
73107;SDS011;61559;50.476;15.588;2022-12-07T06:52:51;11.30;;;5.20;;
73107;SDS011;61559;50.476;15.588;2022-12-07T06:55:23;17.00;;;5.60;;
73107;SDS011;61559;50.476;15.588;2022-12-07T06:57:54;16.60;;;6.40;;
73107;SDS011;61559;50.476;15.588;2022-12-07T07:00:26;14.10;;;6.20;;
73107;SDS011;61559;50.476;15.588;2022-12-07T07:02:57;11.60;;;6.10;;
73107;SDS011;61559;50.476;15.588;2022-12-07T07:05:28;17.90;;;6.50;;
73107;SDS011;61559;50.476;15.588;2022-12-07T07:07:59;19.00;;;7.20;;
73107;SDS011;61559;50.476;15.588;2022-12-07T07:10:49;23.40;;;8.10;;
73107;SDS011;61559;50.476;15.588;2022-12-07T07:13:20;18.20;;;6.70;;
73107;SDS011;61559;50.476;15.588;2022-12-07T07:15:52;17.50;;;7.80;;
73107;SDS011;61559;50.476;15.588;2022-12-07T07:18:23;16.80;;;7.30;;
73107;SDS011;61559;50.476;15.588;2022-12-07T07:20:55;23.20;;;8.10;;
73107;SDS011;61559;50.476;15.588;2022-12-07T07:23:26;18.70;;;6.50;;
73107;SDS011;61559;50.476;15.588;2022-12-07T07:25:57;33.10;;;9.40;;
73107;SDS011;61559;50.476;15.588;2022-12-07T07:28:28;22.70;;;7.20;;
73107;SDS011;61559;50.476;15.588;2022-12-07T07:33:29;9.80;;;4.60;;
73107;SDS011;61559;50.476;15.588;2022-12-07T07:36:00;17.80;;;5.10;;
73107;SDS011;61559;50.476;15.588;2022-12-07T07:38:31;18.50;;;6.60;;
73107;SDS011;61559;50.476;15.588;2022-12-07T07:41:02;20.00;;;5.80;;
73107;SDS011;61559;50.476;15.588;2022-12-07T07:43:34;18.80;;;6.40;;
73107;SDS011;61559;50.476;15.588;2022-12-07T07:46:05;22.60;;;7.80;;
73107;SDS011;61559;50.476;15.588;2022-12-07T07:48:36;12.60;;;6.10;;
73107;SDS011;61559;50.476;15.588;2022-12-07T07:51:07;13.40;;;5.50;;
73107;SDS011;61559;50.476;15.588;2022-12-07T07:53:38;19.80;;;7.40;;
73107;SDS011;61559;50.476;15.588;2022-12-07T07:56:09;21.20;;;7.70;;
73107;SDS011;61559;50.476;15.588;2022-12-07T07:58:40;14.40;;;6.60;;
73107;SDS011;61559;50.476;15.588;2022-12-07T08:01:11;15.50;;;6.40;;
73107;SDS011;61559;50.476;15.588;2022-12-07T08:03:44;12.80;;;5.40;;
73107;SDS011;61559;50.476;15.588;2022-12-07T08:06:15;17.70;;;7.00;;
73107;SDS011;61559;50.476;15.588;2022-12-07T08:08:46;30.70;;;11.20;;
73107;SDS011;61559;50.476;15.588;2022-12-07T08:11:17;19.80;;;7.20;;
73107;SDS011;61559;50.476;15.588;2022-12-07T08:13:49;16.30;;;6.20;;
73107;SDS011;61559;50.476;15.588;2022-12-07T08:16:20;29.20;;;8.20;;
73107;SDS011;61559;50.476;15.588;2022-12-07T08:18:51;30.20;;;8.60;;
73107;SDS011;61559;50.476;15.588;2022-12-07T08:21:22;15.50;;;6.00;;
73107;SDS011;61559;50.476;15.588;2022-12-07T08:23:53;21.00;;;7.80;;
73107;SDS011;61559;50.476;15.588;2022-12-07T08:26:25;24.90;;;8.80;;
73107;SDS011;61559;50.476;15.588;2022-12-07T08:28:56;18.10;;;8.90;;
73107;SDS011;61559;50.476;15.588;2022-12-07T08:31:27;22.70;;;8.20;;
73107;SDS011;61559;50.476;15.588;2022-12-07T08:33:59;13.10;;;6.30;;
73107;SDS011;61559;50.476;15.588;2022-12-07T08:36:30;18.50;;;6.50;;
73107;SDS011;61559;50.476;15.588;2022-12-07T08:39:01;21.50;;;6.70;;
73107;SDS011;61559;50.476;15.588;2022-12-07T08:41:53;18.20;;;6.80;;
73107;SDS011;61559;50.476;15.588;2022-12-07T08:44:24;21.70;;;7.10;;
73107;SDS011;61559;50.476;15.588;2022-12-07T08:46:55;17.50;;;6.20;;
73107;SDS011;61559;50.476;15.588;2022-12-07T08:49:30;24.30;;;7.80;;
73107;SDS011;61559;50.476;15.588;2022-12-07T08:52:05;23.60;;;7.70;;
73107;SDS011;61559;50.476;15.588;2022-12-07T08:54:36;17.20;;;6.10;;
73107;SDS011;61559;50.476;15.588;2022-12-07T08:57:09;32.40;;;8.00;;
73107;SDS011;61559;50.476;15.588;2022-12-07T08:59:42;21.30;;;6.40;;
73107;SDS011;61559;50.476;15.588;2022-12-07T09:02:13;22.80;;;8.00;;
73107;SDS011;61559;50.476;15.588;2022-12-07T09:04:44;9.70;;;3.70;;
73107;SDS011;61559;50.476;15.588;2022-12-07T09:07:15;23.10;;;6.90;;
73107;SDS011;61559;50.476;15.588;2022-12-07T09:12:15;13.20;;;3.80;;
73107;SDS011;61559;50.476;15.588;2022-12-07T09:14:46;16.30;;;5.60;;
73107;SDS011;61559;50.476;15.588;2022-12-07T09:17:17;19.40;;;6.40;;
73107;SDS011;61559;50.476;15.588;2022-12-07T09:19:48;21.30;;;7.20;;
73107;SDS011;61559;50.476;15.588;2022-12-07T09:22:19;18.40;;;5.50;;
73107;SDS011;61559;50.476;15.588;2022-12-07T09:24:50;26.30;;;6.80;;
73107;SDS011;61559;50.476;15.588;2022-12-07T09:29:51;18.90;;;6.20;;
73107;SDS011;61559;50.476;15.588;2022-12-07T09:34:52;12.50;;;5.70;;
73107;SDS011;61559;50.476;15.588;2022-12-07T09:37:23;34.20;;;10.00;;
73107;SDS011;61559;50.476;15.588;2022-12-07T09:39:54;17.60;;;5.90;;
73107;SDS011;61559;50.476;15.588;2022-12-07T09:42:27;23.40;;;7.60;;
73107;SDS011;61559;50.476;15.588;2022-12-07T09:45:04;27.90;;;7.90;;
73107;SDS011;61559;50.476;15.588;2022-12-07T09:47:36;30.90;;;9.40;;
73107;SDS011;61559;50.476;15.588;2022-12-07T09:50:12;49.30;;;12.30;;
73107;SDS011;61559;50.476;15.588;2022-12-07T09:52:48;27.10;;;8.80;;
73107;SDS011;61559;50.476;15.588;2022-12-07T09:55:21;33.40;;;9.90;;
73107;SDS011;61559;50.476;15.588;2022-12-07T09:57:55;29.60;;;10.20;;
73107;SDS011;61559;50.476;15.588;2022-12-07T10:00:27;30.80;;;9.50;;
73107;SDS011;61559;50.476;15.588;2022-12-07T10:02:59;26.00;;;8.70;;
73107;SDS011;61559;50.476;15.588;2022-12-07T10:05:32;13.00;;;5.20;;
73107;SDS011;61559;50.476;15.588;2022-12-07T10:08:08;32.90;;;10.70;;
73107;SDS011;61559;50.476;15.588;2022-12-07T10:10:44;21.50;;;7.60;;
73107;SDS011;61559;50.476;15.588;2022-12-07T10:13:18;25.70;;;9.20;;
73107;SDS011;61559;50.476;15.588;2022-12-07T10:15:52;39.70;;;11.50;;
73107;SDS011;61559;50.476;15.588;2022-12-07T10:18:34;25.30;;;9.80;;
73107;SDS011;61559;50.476;15.588;2022-12-07T10:21:13;27.00;;;8.20;;
73107;SDS011;61559;50.476;15.588;2022-12-07T10:24:00;20.20;;;7.60;;
73107;SDS011;61559;50.476;15.588;2022-12-07T10:26:33;33.40;;;10.00;;
73107;SDS011;61559;50.476;15.588;2022-12-07T10:29:14;12.60;;;5.50;;
73107;SDS011;61559;50.476;15.588;2022-12-07T10:31:48;31.20;;;7.50;;
73107;SDS011;61559;50.476;15.588;2022-12-07T10:34:25;27.00;;;8.80;;
73107;SDS011;61559;50.476;15.588;2022-12-07T10:37:15;33.90;;;10.20;;
73107;SDS011;61559;50.476;15.588;2022-12-07T10:39:48;16.80;;;6.70;;
73107;SDS011;61559;50.476;15.588;2022-12-07T10:42:21;27.90;;;9.30;;
73107;SDS011;61559;50.476;15.588;2022-12-07T10:45:07;55.50;;;19.30;;
73107;SDS011;61559;50.476;15.588;2022-12-07T10:47:44;18.60;;;9.50;;
73107;SDS011;61559;50.476;15.588;2022-12-07T10:50:26;10.00;;;5.40;;
73107;SDS011;61559;50.476;15.588;2022-12-07T10:53:14;7.90;;;5.30;;
73107;SDS011;61559;50.476;15.588;2022-12-07T10:56:10;9.10;;;4.40;;
73107;SDS011;61559;50.476;15.588;2022-12-07T10:58:55;12.20;;;5.90;;
73107;SDS011;61559;50.476;15.588;2022-12-07T11:01:41;9.50;;;4.70;;
73107;SDS011;61559;50.476;15.588;2022-12-07T11:04:21;7.40;;;4.20;;
73107;SDS011;61559;50.476;15.588;2022-12-07T11:07:00;9.70;;;4.60;;
73107;SDS011;61559;50.476;15.588;2022-12-07T11:09:51;6.90;;;3.50;;
73107;SDS011;61559;50.476;15.588;2022-12-07T11:12:41;8.10;;;4.30;;
73107;SDS011;61559;50.476;15.588;2022-12-07T11:15:22;7.20;;;4.30;;
73107;SDS011;61559;50.476;15.588;2022-12-07T11:18:00;9.50;;;4.90;;
73107;SDS011;61559;50.476;15.588;2022-12-07T11:20:39;7.50;;;4.00;;
73107;SDS011;61559;50.476;15.588;2022-12-07T11:23:18;6.80;;;4.60;;
73107;SDS011;61559;50.476;15.588;2022-12-07T11:25:59;8.00;;;4.30;;
73107;SDS011;61559;50.476;15.588;2022-12-07T11:28:42;6.40;;;3.50;;
73107;SDS011;61559;50.476;15.588;2022-12-07T11:31:30;7.30;;;3.90;;
73107;SDS011;61559;50.476;15.588;2022-12-07T11:34:24;10.00;;;5.20;;
73107;SDS011;61559;50.476;15.588;2022-12-07T11:37:06;8.40;;;4.70;;
73107;SDS011;61559;50.476;15.588;2022-12-07T11:39:41;9.60;;;4.50;;
73107;SDS011;61559;50.476;15.588;2022-12-07T11:42:20;9.50;;;5.50;;
73107;SDS011;61559;50.476;15.588;2022-12-07T11:44:55;11.80;;;6.10;;
73107;SDS011;61559;50.476;15.588;2022-12-07T11:47:36;11.10;;;5.10;;
73107;SDS011;61559;50.476;15.588;2022-12-07T11:50:17;14.80;;;6.50;;
73107;SDS011;61559;50.476;15.588;2022-12-07T11:52:57;34.40;;;11.10;;
73107;SDS011;61559;50.476;15.588;2022-12-07T11:55:32;18.20;;;8.50;;
73107;SDS011;61559;50.476;15.588;2022-12-07T11:58:18;15.80;;;6.30;;
73107;SDS011;61559;50.476;15.588;2022-12-07T12:01:11;10.40;;;5.10;;
73107;SDS011;61559;50.476;15.588;2022-12-07T12:03:52;16.00;;;6.50;;
73107;SDS011;61559;50.476;15.588;2022-12-07T12:06:27;19.50;;;8.10;;
73107;SDS011;61559;50.476;15.588;2022-12-07T12:09:00;12.60;;;5.60;;
73107;SDS011;61559;50.476;15.588;2022-12-07T12:15:15;11.80;;;4.50;;
73107;SDS011;61559;50.476;15.588;2022-12-07T12:18:02;10.60;;;5.00;;
73107;SDS011;61559;50.476;15.588;2022-12-07T12:20:42;13.20;;;5.60;;
73107;SDS011;61559;50.476;15.588;2022-12-07T12:23:16;10.30;;;5.90;;
73107;SDS011;61559;50.476;15.588;2022-12-07T12:25:51;22.20;;;8.60;;
73107;SDS011;61559;50.476;15.588;2022-12-07T12:28:26;16.20;;;6.00;;
73107;SDS011;61559;50.476;15.588;2022-12-07T12:31:07;13.40;;;6.60;;
73107;SDS011;61559;50.476;15.588;2022-12-07T12:33:43;22.50;;;9.60;;
73107;SDS011;61559;50.476;15.588;2022-12-07T12:36:24;16.70;;;7.10;;
73107;SDS011;61559;50.476;15.588;2022-12-07T12:39:13;33.40;;;12.00;;
73107;SDS011;61559;50.476;15.588;2022-12-07T12:42:00;29.40;;;12.20;;
73107;SDS011;61559;50.476;15.588;2022-12-07T12:48:04;36.70;;;15.80;;
73107;SDS011;61559;50.476;15.588;2022-12-07T12:51:04;40.40;;;15.70;;
73107;SDS011;61559;50.476;15.588;2022-12-07T12:54:10;40.40;;;15.80;;
73107;SDS011;61559;50.476;15.588;2022-12-07T12:56:48;26.20;;;12.20;;
73107;SDS011;61559;50.476;15.588;2022-12-07T12:59:28;16.80;;;6.30;;
73107;SDS011;61559;50.476;15.588;2022-12-07T13:05:00;14.30;;;5.60;;
73107;SDS011;61559;50.476;15.588;2022-12-07T13:07:58;18.90;;;7.00;;
73107;SDS011;61559;50.476;15.588;2022-12-07T13:10:44;21.50;;;8.30;;
73107;SDS011;61559;50.476;15.588;2022-12-07T13:13:35;15.20;;;6.00;;
73107;SDS011;61559;50.476;15.588;2022-12-07T13:25:31;16.90;;;5.90;;
73107;SDS011;61559;50.476;15.588;2022-12-07T13:28:12;11.70;;;5.50;;
73107;SDS011;61559;50.476;15.588;2022-12-07T13:30:53;9.60;;;5.00;;
73107;SDS011;61559;50.476;15.588;2022-12-07T13:33:41;8.40;;;4.10;;
73107;SDS011;61559;50.476;15.588;2022-12-07T13:36:16;6.30;;;3.40;;
73107;SDS011;61559;50.476;15.588;2022-12-07T13:38:52;18.40;;;6.70;;
73107;SDS011;61559;50.476;15.588;2022-12-07T13:41:25;19.60;;;6.50;;
73107;SDS011;61559;50.476;15.588;2022-12-07T13:44:02;9.10;;;3.60;;
73107;SDS011;61559;50.476;15.588;2022-12-07T13:46:43;6.50;;;3.20;;
73107;SDS011;61559;50.476;15.588;2022-12-07T13:49:19;9.70;;;4.00;;
73107;SDS011;61559;50.476;15.588;2022-12-07T13:51:53;5.40;;;2.90;;
73107;SDS011;61559;50.476;15.588;2022-12-07T13:54:44;8.60;;;3.60;;
73107;SDS011;61559;50.476;15.588;2022-12-07T13:57:18;4.80;;;2.60;;
73107;SDS011;61559;50.476;15.588;2022-12-07T13:59:53;15.90;;;6.00;;
73107;SDS011;61559;50.476;15.588;2022-12-07T14:02:27;11.50;;;5.80;;
73107;SDS011;61559;50.476;15.588;2022-12-07T14:05:09;14.60;;;5.80;;
73107;SDS011;61559;50.476;15.588;2022-12-07T14:07:52;10.70;;;5.40;;
73107;SDS011;61559;50.476;15.588;2022-12-07T14:10:28;18.10;;;7.50;;
73107;SDS011;61559;50.476;15.588;2022-12-07T14:13:02;8.10;;;4.10;;
73107;SDS011;61559;50.476;15.588;2022-12-07T14:15:52;17.50;;;5.90;;
73107;SDS011;61559;50.476;15.588;2022-12-07T14:21:06;6.50;;;3.00;;
73107;SDS011;61559;50.476;15.588;2022-12-07T14:23:47;11.90;;;4.50;;
73107;SDS011;61559;50.476;15.588;2022-12-07T14:26:45;19.90;;;7.00;;
73107;SDS011;61559;50.476;15.588;2022-12-07T14:29:21;31.90;;;12.60;;
73107;SDS011;61559;50.476;15.588;2022-12-07T14:32:04;40.30;;;16.40;;
73107;SDS011;61559;50.476;15.588;2022-12-07T14:35:00;26.90;;;11.80;;
73107;SDS011;61559;50.476;15.588;2022-12-07T14:37:38;23.30;;;11.20;;
73107;SDS011;61559;50.476;15.588;2022-12-07T14:40:13;12.70;;;7.10;;
73107;SDS011;61559;50.476;15.588;2022-12-07T14:42:46;22.50;;;9.60;;
73107;SDS011;61559;50.476;15.588;2022-12-07T14:45:20;31.60;;;12.50;;
73107;SDS011;61559;50.476;15.588;2022-12-07T14:47:52;49.10;;;15.60;;
73107;SDS011;61559;50.476;15.588;2022-12-07T14:50:43;28.20;;;9.40;;
73107;SDS011;61559;50.476;15.588;2022-12-07T14:53:38;31.90;;;10.70;;
73107;SDS011;61559;50.476;15.588;2022-12-07T14:56:15;40.80;;;16.20;;
73107;SDS011;61559;50.476;15.588;2022-12-07T14:58:46;24.80;;;9.50;;
73107;SDS011;61559;50.476;15.588;2022-12-07T15:01:17;21.00;;;9.20;;
73107;SDS011;61559;50.476;15.588;2022-12-07T15:06:18;31.30;;;10.70;;
73107;SDS011;61559;50.476;15.588;2022-12-07T15:08:49;34.00;;;11.90;;
73107;SDS011;61559;50.476;15.588;2022-12-07T15:11:23;35.20;;;12.00;;
73107;SDS011;61559;50.476;15.588;2022-12-07T15:13:54;21.60;;;8.50;;
73107;SDS011;61559;50.476;15.588;2022-12-07T15:16:39;13.60;;;6.50;;
73107;SDS011;61559;50.476;15.588;2022-12-07T15:19:31;27.70;;;12.10;;
73107;SDS011;61559;50.476;15.588;2022-12-07T15:22:04;27.10;;;11.20;;
73107;SDS011;61559;50.476;15.588;2022-12-07T15:24:35;21.00;;;9.90;;
73107;SDS011;61559;50.476;15.588;2022-12-07T15:27:06;31.10;;;11.60;;
73107;SDS011;61559;50.476;15.588;2022-12-07T15:29:37;55.60;;;23.50;;
73107;SDS011;61559;50.476;15.588;2022-12-07T15:32:09;21.20;;;8.00;;
73107;SDS011;61559;50.476;15.588;2022-12-07T15:34:41;20.00;;;8.70;;
73107;SDS011;61559;50.476;15.588;2022-12-07T15:37:12;27.00;;;10.50;;
73107;SDS011;61559;50.476;15.588;2022-12-07T15:39:44;17.40;;;7.60;;
73107;SDS011;61559;50.476;15.588;2022-12-07T15:42:16;46.60;;;15.70;;
73107;SDS011;61559;50.476;15.588;2022-12-07T15:44:47;33.90;;;13.30;;
73107;SDS011;61559;50.476;15.588;2022-12-07T15:47:36;19.10;;;9.90;;
73107;SDS011;61559;50.476;15.588;2022-12-07T15:50:30;16.70;;;7.50;;
73107;SDS011;61559;50.476;15.588;2022-12-07T15:55:30;10.00;;;4.80;;
73107;SDS011;61559;50.476;15.588;2022-12-07T16:00:31;8.20;;;3.70;;
73107;SDS011;61559;50.476;15.588;2022-12-07T16:03:02;15.70;;;7.40;;
73107;SDS011;61559;50.476;15.588;2022-12-07T16:08:03;24.80;;;9.10;;
73107;SDS011;61559;50.476;15.588;2022-12-07T16:10:35;8.10;;;4.30;;